Time;durP1;ratioP1;P1;durP2;ratioP2;P2;SDS_P1;SDS_P2;PMS_P1;PMS_P2;Temp;Humidity;BMP_temperature;BMP_pressure;BME280_temperature;BME280_humidity;BME280_pressure;Samples;Min_cycle;Max_cycle;Signal;HPM_P1;HPM_P2
2023/05/20 00:01:03;;;;;;;;;19.00;18.00;;;;;;;;1999127;28;3564811;-73
2023/05/20 00:02:15;;;;;;;;;22.80;16.80;;;;;;;;2004063;28;3571027;-73
2023/05/20 00:03:28;;;;;;;;;18.40;18.20;;;;;;;;2000828;28;3568940;-73
2023/05/20 00:04:40;;;;;;;;;18.50;15.50;;;;;;;;1978724;28;2823167;-73
2023/05/20 00:05:51;;;;;;;;;13.00;12.00;;;;;;;;1951991;28;2799190;-73
2023/05/20 00:07:03;;;;;;;;;18.33;16.67;;;;;;;;1974024;28;2816993;-73
2023/05/20 00:08:13;;;;;;;;;19.00;16.00;;;;;;;;1978483;28;2817995;-73
2023/05/20 00:09:25;;;;;;;;;21.00;16.33;;;;;;;;1991936;28;3561725;-73
2023/05/20 00:10:38;;;;;;;;;20.57;17.43;;;;;;;;1990834;28;3562725;-73
2023/05/20 00:11:49;;;;;;;;;5.00;0.00;;;;;;;;2003125;28;2737777;-73
2023/05/20 00:13:00;;;;;;;;;18.00;16.67;;;;;;;;1953795;28;3565151;-72
2023/05/20 00:14:12;;;;;;;;;18.80;17.00;;;;;;;;1991836;28;3566200;-73
2023/05/20 00:15:24;;;;;;;;;20.00;17.60;;;;;;;;2003841;28;3571109;-73
2023/05/20 00:16:36;;;;;;;;;18.80;16.40;;;;;;;;2005309;28;3563735;-73
2023/05/20 00:17:49;;;;;;;;;21.00;17.14;;;;;;;;1998398;28;3566903;-73
2023/05/20 00:19:00;;;;;;;;;14.60;14.60;;;;;;;;1999289;28;3516894;-73
2023/05/20 00:20:13;;;;;;;;;16.00;12.86;;;;;;;;1997669;28;2810657;-73
2023/05/20 00:21:24;;;;;;;;;16.67;16.00;;;;;;;;1973059;28;3559663;-73
2023/05/20 00:22:36;;;;;;;;;14.20;13.40;;;;;;;;2000563;28;3517903;-73
2023/05/20 00:23:48;;;;;;;;;19.80;16.60;;;;;;;;2003555;28;3572065;-73
2023/05/20 00:25:00;;;;;;;;;16.40;16.40;;;;;;;;2003137;28;3556447;-73
2023/05/20 00:26:13;;;;;;;;;18.57;15.43;;;;;;;;1998570;28;3565862;-73
2023/05/20 00:27:26;;;;;;;;;23.14;14.43;;;;;;;;1997745;28;3554408;-73
2023/05/20 00:28:37;;;;;;;;;18.40;14.20;;;;;;;;2003391;28;3530395;-73
2023/05/20 00:29:49;;;;;;;;;18.60;18.60;;;;;;;;2005939;28;3559561;-73
2023/05/20 00:31:01;;;;;;;;;17.60;14.20;;;;;;;;2006226;28;3538759;-73
2023/05/20 00:32:14;;;;;;;;;18.71;15.00;;;;;;;;2001088;28;3531879;-73
2023/05/20 00:33:27;;;;;;;;;15.00;13.86;;;;;;;;1998255;28;2802310;-73
2023/05/20 00:34:37;;;;;;;;;18.00;15.00;;;;;;;;1979523;28;2812762;-72
2023/05/20 00:35:50;;;;;;;;;20.57;16.71;;;;;;;;1993847;28;3568998;-72
2023/05/20 00:37:03;;;;;;;;;25.00;16.29;;;;;;;;1976384;28;3580489;-73
2023/05/20 00:38:15;;;;;;;;;19.00;15.60;;;;;;;;1981633;28;3536689;-73
2023/05/20 00:39:25;;;;;;;;;13.25;11.75;;;;;;;;2005350;28;1823204;-73
2023/05/20 00:40:37;;;;;;;;;15.40;13.80;;;;;;;;1983628;28;2805536;-73
2023/05/20 00:41:47;;;;;;;;;19.00;16.00;;;;;;;;1977185;28;2827339;-73
2023/05/20 00:42:59;;;;;;;;;19.00;14.80;;;;;;;;1975491;28;2805572;-73
2023/05/20 00:44:10;;;;;;;;;16.33;14.67;;;;;;;;1975001;28;2808589;-73
2023/05/20 00:45:21;;;;;;;;;22.00;16.00;;;;;;;;1975372;28;3573161;-73
2023/05/20 00:46:34;;;;;;;;;17.00;14.00;;;;;;;;1996198;28;2812719;-73
2023/05/20 00:47:46;;;;;;;;;21.67;12.67;;;;;;;;1977660;28;3557535;-73
2023/05/20 00:48:58;;;;;;;;;19.43;15.86;;;;;;;;1996635;28;3538769;-73
2023/05/20 00:50:10;;;;;;;;;17.60;15.80;;;;;;;;2001556;28;3549167;-73
2023/05/20 00:51:23;;;;;;;;;15.29;11.43;;;;;;;;1996944;28;2810659;-73
2023/05/20 00:52:35;;;;;;;;;17.00;15.00;;;;;;;;1974860;28;2808725;-73
2023/05/20 00:53:45;;;;;;;;;16.50;12.50;;;;;;;;1977345;28;2807563;-73
2023/05/20 00:54:56;;;;;;;;;15.00;14.00;;;;;;;;1970738;28;2798144;-73
2023/05/20 00:56:07;;;;;;;;;16.00;15.50;;;;;;;;1968974;28;2813804;-73
2023/05/20 00:57:19;;;;;;;;;17.33;16.00;;;;;;;;1966000;28;2821048;-73
2023/05/20 00:58:31;;;;;;;;;17.67;16.00;;;;;;;;1968281;28;2832019;-73
2023/05/20 00:59:42;;;;;;;;;20.67;20.33;;;;;;;;1976571;28;3577342;-73
2023/05/20 01:00:55;;;;;;;;;15.43;14.86;;;;;;;;1997689;28;3524256;-73
2023/05/20 01:02:07;;;;;;;;;18.67;16.67;;;;;;;;1987973;28;3553358;-73
2023/05/20 01:03:19;;;;;;;;;20.43;15.71;;;;;;;;1996822;28;3556499;-73
2023/05/20 01:04:32;;;;;;;;;16.67;14.67;;;;;;;;1993991;28;2804430;-73
2023/05/20 01:05:43;;;;;;;;;20.67;15.00;;;;;;;;1977558;28;2804458;-73
2023/05/20 01:06:54;;;;;;;;;17.50;11.50;;;;;;;;1975583;28;2795055;-73
2023/05/20 01:08:05;;;;;;;;;23.67;16.67;;;;;;;;1954160;28;3561691;-73
2023/05/20 01:09:18;;;;;;;;;17.43;14.57;;;;;;;;1999564;28;3541940;-72
2023/05/20 01:10:30;;;;;;;;;13.50;9.00;;;;;;;;1999310;28;2763135;-72
2023/05/20 01:11:46;;;;;;;;;15.00;12.50;;;;;;;;1986668;28;2798276;-72
2023/05/20 01:13:00;;;;;;;;;22.50;18.00;;;;;;;;1977516;28;2833588;-72
2023/05/20 01:14:12;;;;;;;;;16.00;14.67;;;;;;;;1977356;28;2812759;-72
2023/05/20 01:15:23;;;;;;;;;16.67;14.00;;;;;;;;1977043;28;2813841;-72
2023/05/20 01:16:35;;;;;;;;;16.33;16.00;;;;;;;;1977078;28;3560665;-72
2023/05/20 01:17:47;;;;;;;;;17.50;14.50;;;;;;;;1993354;28;2804427;-73
2023/05/20 01:18:58;;;;;;;;;15.50;13.00;;;;;;;;1956803;28;2800638;-73
2023/05/20 01:20:10;;;;;;;;;19.33;15.00;;;;;;;;1989368;28;3548516;-73
2023/05/20 01:21:21;;;;;;;;;20.33;14.00;;;;;;;;1977051;28;2820580;-72
2023/05/20 01:22:35;;;;;;;;;15.67;14.33;;;;;;;;1976524;28;2802473;-73
2023/05/20 01:23:47;;;;;;;;;19.33;16.67;;;;;;;;1969605;28;3551266;-73
2023/05/20 01:24:57;;;;;;;;;18.00;18.00;;;;;;;;1980142;28;2830474;-73
2023/05/20 01:26:12;;;;;;;;;18.14;15.57;;;;;;;;2001049;28;3560665;-73
2023/05/20 01:27:23;;;;;;;;;17.33;14.00;;;;;;;;1976779;28;2812786;-73
2023/05/20 01:28:35;;;;;;;;;21.00;18.50;;;;;;;;1976832;28;2828392;-73
2023/05/20 01:29:53;;;;;;;;;14.67;13.67;;;;;;;;1953393;28;3525222;-73
2023/05/20 01:31:06;;;;;;;;;17.33;15.67;;;;;;;;1977361;28;3555456;-73
2023/05/20 01:32:21;;;;;;;;;15.67;10.67;;;;;;;;1976545;28;2798212;-73
2023/05/20 01:33:36;;;;;;;;;13.17;10.50;;;;;;;;2006169;28;1836810;-73
2023/05/20 01:34:50;;;;;;;;;15.83;14.00;;;;;;;;1984436;28;1828376;-72
2023/05/20 01:36:00;;;;;;;;;17.50;14.00;;;;;;;;1956396;28;2808621;-72
2023/05/20 01:37:12;;;;;;;;;15.50;14.00;;;;;;;;1990522;28;2790913;-72
2023/05/20 01:38:24;;;;;;;;;15.00;14.00;;;;;;;;1952725;28;2795028;-72
2023/05/20 01:39:38;;;;;;;;;19.00;13.33;;;;;;;;1979421;28;2814827;-72
2023/05/20 01:40:51;;;;;;;;;14.40;13.80;;;;;;;;1992090;28;2810683;-73
2023/05/20 01:42:03;;;;;;;;;17.20;12.60;;;;;;;;1959560;28;3556487;-72
2023/05/20 01:43:15;;;;;;;;;17.33;14.33;;;;;;;;1975287;28;2807603;-72
2023/05/20 01:44:26;;;;;;;;;16.00;10.50;;;;;;;;1976820;28;2800267;-72
2023/05/20 01:45:40;;;;;;;;;17.80;14.00;;;;;;;;1970902;28;3555422;-73
2023/05/20 01:46:51;;;;;;;;;16.67;14.00;;;;;;;;1977149;28;2803431;-72
2023/05/20 01:48:01;;;;;;;;;16.50;13.50;;;;;;;;1975053;28;2798160;-72
2023/05/20 01:49:14;;;;;;;;;16.57;14.14;;;;;;;;1975803;28;3549241;-73
2023/05/20 01:50:27;;;;;;;;;19.86;18.00;;;;;;;;1997404;28;3559639;-73
2023/05/20 01:51:39;;;;;;;;;16.40;14.60;;;;;;;;2005174;28;3532520;-72
2023/05/20 01:52:51;;;;;;;;;14.40;11.80;;;;;;;;2004768;28;2786860;-73
2023/05/20 01:54:01;;;;;;;;;15.00;14.50;;;;;;;;1980315;28;2808556;-73
2023/05/20 01:55:13;;;;;;;;;16.80;16.60;;;;;;;;1979274;28;3558569;-73
2023/05/20 01:56:25;;;;;;;;;15.80;15.80;;;;;;;;2004642;28;3542960;-72
2023/05/20 01:57:36;;;;;;;;;17.50;13.50;;;;;;;;1995064;28;2802350;-72
2023/05/20 01:58:49;;;;;;;;;15.29;13.71;;;;;;;;1977243;28;3549168;-72
2023/05/20 02:00:02;;;;;;;;;16.50;13.67;;;;;;;;2008471;28;2818012;-73
2023/05/20 02:01:14;;;;;;;;;17.40;16.20;;;;;;;;1963050;28;3528828;-73
2023/05/20 02:02:26;;;;;;;;;17.14;15.29;;;;;;;;1997483;28;3540962;-73
2023/05/20 02:03:39;;;;;;;;;20.71;17.14;;;;;;;;1999979;28;3563767;-73
2023/05/20 02:04:52;;;;;;;;;16.20;15.60;;;;;;;;1997929;28;3529358;-73
2023/05/20 02:06:04;;;;;;;;;14.67;14.33;;;;;;;;1974575;28;3533575;-72
2023/05/20 02:07:17;;;;;;;;;21.33;16.67;;;;;;;;2015992;28;2837798;-73
2023/05/20 02:08:28;;;;;;;;;20.40;17.00;;;;;;;;1959900;28;3568959;-73
2023/05/20 02:09:40;;;;;;;;;16.40;15.40;;;;;;;;2004059;28;3539789;-72
2023/05/20 02:10:52;;;;;;;;;19.80;17.20;;;;;;;;1998636;28;3560634;-72
2023/05/20 02:12:06;;;;;;;;;18.00;15.00;;;;;;;;2000274;28;3531514;-72
2023/05/20 02:13:17;;;;;;;;;17.67;15.33;;;;;;;;1977343;28;2813898;-72
2023/05/20 02:14:28;;;;;;;;;16.33;15.67;;;;;;;;1974972;28;3557529;-73
2023/05/20 02:15:41;;;;;;;;;16.00;12.86;;;;;;;;1999358;28;3532511;-73
2023/05/20 02:16:54;;;;;;;;;24.86;19.29;;;;;;;;1996892;28;3584636;-73
2023/05/20 02:18:07;;;;;;;;;15.80;15.40;;;;;;;;1980054;28;3537707;-73
2023/05/20 02:19:22;;;;;;;;;16.00;15.00;;;;;;;;1974939;28;2803403;-72
2023/05/20 02:20:36;;;;;;;;;18.67;16.67;;;;;;;;1953700;28;3561703;-72
2023/05/20 02:21:48;;;;;;;;;16.67;14.33;;;;;;;;1976224;28;3541897;-73
2023/05/20 02:22:59;;;;;;;;;20.80;14.80;;;;;;;;1986978;28;3550197;-73
2023/05/20 02:24:10;;;;;;;;;16.00;13.25;;;;;;;;2004551;28;1826352;-72
2023/05/20 02:25:20;;;;;;;;;17.00;14.50;;;;;;;;1978377;28;2810676;-72
2023/05/20 02:26:33;;;;;;;;;21.40;17.20;;;;;;;;1994583;28;3562734;-73
2023/05/20 02:27:43;;;;;;;;;11.50;11.50;;;;;;;;1979725;28;2797155;-73
2023/05/20 02:28:56;;;;;;;;;16.71;15.29;;;;;;;;2000806;28;3534641;-73
2023/05/20 02:30:09;;;;;;;;;18.40;16.20;;;;;;;;2003772;28;3560681;-73
2023/05/20 02:31:20;;;;;;;;;20.00;17.00;;;;;;;;1974373;28;2826748;-73
2023/05/20 02:32:32;;;;;;;;;10.50;10.50;;;;;;;;1976942;28;2786715;-73
2023/05/20 02:33:44;;;;;;;;;16.00;16.00;;;;;;;;1952988;28;3556500;-73
2023/05/20 02:34:55;;;;;;;;;17.67;16.00;;;;;;;;1976004;28;3561699;-73
2023/05/20 02:36:08;;;;;;;;;18.71;17.43;;;;;;;;1998459;28;3571451;-73
2023/05/20 02:37:19;;;;;;;;;12.50;10.50;;;;;;;;1994098;28;2787847;-73
2023/05/20 02:38:31;;;;;;;;;17.67;13.67;;;;;;;;1966793;28;3537694;-73
2023/05/20 02:39:43;;;;;;;;;23.80;17.00;;;;;;;;2000901;28;3564863;-73
2023/05/20 02:40:57;;;;;;;;;19.29;15.86;;;;;;;;1998749;28;3546567;-72
2023/05/20 02:42:08;;;;;;;;;18.00;14.00;;;;;;;;1976793;28;2813905;-72
2023/05/20 02:43:19;;;;;;;;;18.00;16.00;;;;;;;;1979075;28;2815888;-72
2023/05/20 02:44:31;;;;;;;;;26.40;16.00;;;;;;;;2002888;28;3586690;-72
2023/05/20 02:45:43;;;;;;;;;20.57;17.57;;;;;;;;1994975;28;3560733;-73
2023/05/20 02:46:56;;;;;;;;;16.71;14.57;;;;;;;;1999193;28;3555466;-73
2023/05/20 02:48:09;;;;;;;;;21.71;15.29;;;;;;;;1998564;28;3566896;-73
2023/05/20 02:49:21;;;;;;;;;22.40;17.40;;;;;;;;1970903;28;3567910;-73
2023/05/20 02:50:33;;;;;;;;;20.67;15.67;;;;;;;;1992236;28;3552332;-72
2023/05/20 02:51:45;;;;;;;;;14.40;14.20;;;;;;;;2001373;28;3520086;-73
2023/05/20 02:52:57;;;;;;;;;18.80;15.00;;;;;;;;2005352;28;3554408;-73
2023/05/20 02:54:09;;;;;;;;;17.29;16.29;;;;;;;;1999645;28;3558550;-73
2023/05/20 02:55:22;;;;;;;;;18.00;15.43;;;;;;;;1998827;28;3537737;-72
2023/05/20 02:56:34;;;;;;;;;19.40;14.40;;;;;;;;2003194;28;3532501;-72
2023/05/20 02:57:46;;;;;;;;;16.80;15.20;;;;;;;;2001169;28;3539797;-73
2023/05/20 02:58:59;;;;;;;;;15.40;15.40;;;;;;;;2005037;28;3533616;-72
2023/05/20 03:00:10;;;;;;;;;18.00;15.00;;;;;;;;1979906;28;2810632;-73
2023/05/20 03:01:22;;;;;;;;;19.67;16.67;;;;;;;;1974815;28;3563799;-72
2023/05/20 03:02:33;;;;;;;;;20.67;17.00;;;;;;;;1976705;28;2824337;-73
2023/05/20 03:03:43;;;;;;;;;16.00;15.00;;;;;;;;1976683;28;2823267;-73
2023/05/20 03:04:55;;;;;;;;;19.00;17.20;;;;;;;;1979795;28;3562706;-72
2023/05/20 03:06:08;;;;;;;;;18.71;17.71;;;;;;;;1997997;28;3562726;-72
2023/05/20 03:07:21;;;;;;;;;19.00;17.14;;;;;;;;1998577;28;3564880;-72
2023/05/20 03:08:33;;;;;;;;;23.67;19.00;;;;;;;;1992573;28;3575244;-72
2023/05/20 03:09:44;;;;;;;;;16.20;15.40;;;;;;;;1992490;28;3535627;-72
2023/05/20 03:10:57;;;;;;;;;18.14;14.71;;;;;;;;1998586;28;3540885;-72
2023/05/20 03:12:10;;;;;;;;;19.57;17.43;;;;;;;;1997065;28;3555430;-73
2023/05/20 03:13:22;;;;;;;;;15.40;13.20;;;;;;;;2004342;28;3521039;-72
2023/05/20 03:14:33;;;;;;;;;16.50;15.25;;;;;;;;2004432;28;1837859;-72
2023/05/20 03:15:44;;;;;;;;;22.00;14.67;;;;;;;;1978019;28;3569008;-72
2023/05/20 03:16:55;;;;;;;;;12.50;9.00;;;;;;;;1986415;28;2780906;-72
2023/05/20 03:18:09;;;;;;;;;13.40;12.00;;;;;;;;1987006;28;2807647;-72
2023/05/20 03:19:21;;;;;;;;;22.33;20.33;;;;;;;;1975633;28;3579386;-73
2023/05/20 03:20:35;;;;;;;;;24.80;18.00;;;;;;;;2002202;28;3586097;-73
2023/05/20 03:21:46;;;;;;;;;19.50;17.50;;;;;;;;1955263;28;2833559;-73
2023/05/20 03:22:58;;;;;;;;;26.20;21.60;;;;;;;;2002195;28;3575224;-73
2023/05/20 03:24:09;;;;;;;;;18.67;15.00;;;;;;;;1968892;28;3550221;-73
2023/05/20 03:25:21;;;;;;;;;24.40;18.80;;;;;;;;2004190;28;3577276;-72
2023/05/20 03:26:36;;;;;;;;;21.20;18.20;;;;;;;;1979442;28;3569985;-72
2023/05/20 03:27:46;;;;;;;;;16.50;15.00;;;;;;;;1977440;28;2816909;-72
2023/05/20 03:28:58;;;;;;;;;25.40;20.20;;;;;;;;1982814;28;3589852;-73
2023/05/20 03:30:12;;;;;;;;;21.86;19.14;;;;;;;;1999094;28;3575217;-73
2023/05/20 03:31:22;;;;;;;;;19.00;16.00;;;;;;;;1959945;28;2825247;-73
2023/05/20 03:32:34;;;;;;;;;20.20;18.40;;;;;;;;2000690;28;3571129;-73
2023/05/20 03:33:46;;;;;;;;;17.00;17.00;;;;;;;;2001480;28;3556536;-73
2023/05/20 03:34:58;;;;;;;;;25.00;19.60;;;;;;;;2004324;28;3590869;-73
2023/05/20 03:36:10;;;;;;;;;23.20;19.80;;;;;;;;1970980;28;3579359;-73
2023/05/20 03:37:22;;;;;;;;;25.80;15.80;;;;;;;;2001231;28;3575198;-73
2023/05/20 03:38:34;;;;;;;;;23.67;17.00;;;;;;;;1964697;28;3574204;-73
2023/05/20 03:39:46;;;;;;;;;19.80;19.80;;;;;;;;2000790;28;3566875;-73
2023/05/20 03:40:58;;;;;;;;;25.20;20.60;;;;;;;;2004321;28;3576625;-73
2023/05/20 03:42:10;;;;;;;;;23.80;21.00;;;;;;;;2003356;28;3579355;-72
2023/05/20 03:43:22;;;;;;;;;25.80;19.60;;;;;;;;1974161;28;3571040;-72
2023/05/20 03:44:34;;;;;;;;;25.00;20.40;;;;;;;;2001804;28;3577276;-73
2023/05/20 03:45:46;;;;;;;;;28.29;19.14;;;;;;;;1973179;28;3588769;-73
2023/05/20 03:46:58;;;;;;;;;23.40;21.40;;;;;;;;1981631;28;3584079;-72
2023/05/20 03:48:10;;;;;;;;;21.40;20.00;;;;;;;;1981257;28;3571023;-72
2023/05/20 03:49:23;;;;;;;;;19.43;18.29;;;;;;;;1999074;28;3571079;-72
2023/05/20 03:50:35;;;;;;;;;18.60;16.20;;;;;;;;1973074;28;3542918;-72
2023/05/20 03:51:47;;;;;;;;;20.60;17.00;;;;;;;;1995283;28;3558646;-72
2023/05/20 03:53:00;;;;;;;;;26.71;22.71;;;;;;;;1996496;28;3587716;-73
2023/05/20 03:54:15;;;;;;;;;25.00;21.43;;;;;;;;1972488;28;3579420;-73
2023/05/20 03:55:26;;;;;;;;;25.00;21.00;;;;;;;;1953717;28;2854443;-73
2023/05/20 03:56:37;;;;;;;;;18.50;17.00;;;;;;;;1953732;28;2825267;-73
2023/05/20 03:57:49;;;;;;;;;20.60;19.40;;;;;;;;1978341;28;3577301;-72
2023/05/20 03:59:00;;;;;;;;;23.20;17.60;;;;;;;;1995304;28;3567925;-73
2023/05/20 04:00:13;;;;;;;;;20.67;19.00;;;;;;;;1994411;28;3561723;-73
2023/05/20 04:01:24;;;;;;;;;20.50;18.00;;;;;;;;1978214;28;2826689;-72
2023/05/20 04:02:35;;;;;;;;;26.00;18.50;;;;;;;;1953434;28;2837777;-72
2023/05/20 04:03:46;;;;;;;;;22.80;20.60;;;;;;;;1973113;28;3583537;-72
2023/05/20 04:05:01;;;;;;;;;19.43;17.29;;;;;;;;1997194;28;3562725;-72
2023/05/20 04:06:12;;;;;;;;;19.00;19.00;;;;;;;;1977450;28;2825258;-72
2023/05/20 04:07:24;;;;;;;;;21.33;18.00;;;;;;;;1951452;28;3568999;-73
2023/05/20 04:08:36;;;;;;;;;24.86;19.43;;;;;;;;1973362;28;3566953;-73
2023/05/20 04:09:49;;;;;;;;;18.40;17.60;;;;;;;;2002711;28;3560653;-73
2023/05/20 04:11:00;;;;;;;;;19.33;18.67;;;;;;;;1991524;28;3564810;-73
2023/05/20 04:12:12;;;;;;;;;24.20;20.40;;;;;;;;1992886;28;3577277;-73
2023/05/20 04:13:24;;;;;;;;;20.67;19.00;;;;;;;;1970426;28;3566891;-72
2023/05/20 04:14:37;;;;;;;;;24.60;21.60;;;;;;;;2000284;28;3573146;-72
2023/05/20 04:15:50;;;;;;;;;22.00;20.67;;;;;;;;1974105;28;3562786;-72
2023/05/20 04:17:02;;;;;;;;;27.67;19.67;;;;;;;;1974943;28;3588758;-73
2023/05/20 04:18:13;;;;;;;;;27.50;21.50;;;;;;;;1954960;28;2850254;-73
2023/05/20 04:19:27;;;;;;;;;23.33;21.67;;;;;;;;1951226;28;3579355;-73
2023/05/20 04:20:40;;;;;;;;;21.67;20.00;;;;;;;;1975780;28;3564788;-73
2023/05/20 04:21:51;;;;;;;;;21.00;20.00;;;;;;;;1979266;28;2839786;-73
2023/05/20 04:23:01;;;;;;;;;22.50;21.00;;;;;;;;1980789;28;2843984;-73
2023/05/20 04:24:13;;;;;;;;;26.60;21.40;;;;;;;;1980561;28;3584569;-72
2023/05/20 04:25:26;;;;;;;;;24.80;18.40;;;;;;;;1978888;28;3582009;-73
2023/05/20 04:26:37;;;;;;;;;23.67;21.33;;;;;;;;1952694;28;3562745;-73
2023/05/20 04:27:49;;;;;;;;;23.60;20.80;;;;;;;;1988722;28;3579387;-72
2023/05/20 04:29:02;;;;;;;;;21.80;19.20;;;;;;;;1987797;28;3565817;-73
2023/05/20 04:30:13;;;;;;;;;22.50;19.50;;;;;;;;1978678;28;2838756;-73
2023/05/20 04:31:25;;;;;;;;;31.40;23.80;;;;;;;;1977880;28;3605416;-73
2023/05/20 04:32:37;;;;;;;;;25.67;21.00;;;;;;;;1966362;28;3576274;-73
2023/05/20 04:33:49;;;;;;;;;24.80;19.20;;;;;;;;1975506;28;3571089;-73
2023/05/20 04:35:01;;;;;;;;;24.40;20.60;;;;;;;;1997487;28;3583519;-73
2023/05/20 04:36:15;;;;;;;;;25.00;20.40;;;;;;;;1978531;28;3584591;-73
2023/05/20 04:37:25;;;;;;;;;19.50;18.00;;;;;;;;1956285;28;2829402;-73
2023/05/20 04:38:37;;;;;;;;;29.00;21.00;;;;;;;;1982976;28;3603756;-73
2023/05/20 04:39:51;;;;;;;;;28.71;23.00;;;;;;;;1975875;28;3594992;-73
2023/05/20 04:41:02;;;;;;;;;19.00;14.67;;;;;;;;1952834;28;3540847;-73
2023/05/20 04:42:17;;;;;;;;;25.60;21.60;;;;;;;;1992987;28;3579419;-73
2023/05/20 04:43:30;;;;;;;;;28.67;18.00;;;;;;;;1951509;28;3587708;-73
2023/05/20 04:44:41;;;;;;;;;29.00;21.00;;;;;;;;1975476;28;3589771;-72
2023/05/20 04:45:53;;;;;;;;;20.80;20.40;;;;;;;;1974154;28;3572095;-72
2023/05/20 04:47:08;;;;;;;;;23.00;19.80;;;;;;;;1979808;28;3573122;-73
2023/05/20 04:48:21;;;;;;;;;22.00;21.67;;;;;;;;1977393;28;2830482;-73
2023/05/20 04:49:32;;;;;;;;;26.67;21.67;;;;;;;;1978981;28;2841886;-73
2023/05/20 04:50:43;;;;;;;;;23.00;20.67;;;;;;;;1973964;28;3573193;-73
2023/05/20 04:51:55;;;;;;;;;25.80;20.80;;;;;;;;1973426;28;3571043;-73
2023/05/20 04:53:07;;;;;;;;;20.60;19.00;;;;;;;;2004061;28;3566895;-73
2023/05/20 04:54:19;;;;;;;;;23.00;20.00;;;;;;;;1992519;28;3581869;-73
2023/05/20 04:55:31;;;;;;;;;24.60;21.20;;;;;;;;2003183;28;3575729;-73
2023/05/20 04:56:43;;;;;;;;;24.40;20.80;;;;;;;;2003143;28;3588766;-73
2023/05/20 04:57:56;;;;;;;;;26.57;23.00;;;;;;;;1973511;28;3588058;-73
2023/05/20 04:59:09;;;;;;;;;23.80;22.60;;;;;;;;1977548;28;3582540;-73
2023/05/20 05:00:19;;;;;;;;;29.00;22.00;;;;;;;;1977497;28;2849185;-73
2023/05/20 05:01:30;;;;;;;;;26.60;24.00;;;;;;;;1962533;28;2843057;-73
2023/05/20 05:02:41;;;;;;;;;29.50;21.50;;;;;;;;1978420;28;2500304;-73
2023/05/20 05:03:52;;;;;;;;;29.20;23.00;;;;;;;;1974535;28;3589777;-73
2023/05/20 05:05:05;;;;;;;;;27.20;25.00;;;;;;;;2003798;28;3592236;-73
2023/05/20 05:06:16;;;;;;;;;26.40;22.60;;;;;;;;1964178;28;3567925;-73
2023/05/20 05:07:29;;;;;;;;;28.80;24.40;;;;;;;;1977376;28;3580433;-73
2023/05/20 05:08:42;;;;;;;;;30.75;24.75;;;;;;;;1963744;28;3596033;-73
2023/05/20 05:09:52;;;;;;;;;21.50;19.50;;;;;;;;1974750;28;2835679;-73
2023/05/20 05:11:05;;;;;;;;;26.14;22.86;;;;;;;;1975639;28;3587720;-73
2023/05/20 05:12:17;;;;;;;;;25.40;24.80;;;;;;;;1975441;28;3587718;-73
2023/05/20 05:13:29;;;;;;;;;27.00;21.20;;;;;;;;1979552;28;3588778;-73
2023/05/20 05:14:41;;;;;;;;;27.80;21.60;;;;;;;;1980010;28;3578657;-73
2023/05/20 05:15:59;;;;;;;;;29.20;25.80;;;;;;;;1962106;28;2840856;-73
2023/05/20 05:17:10;;;;;;;;;25.00;22.00;;;;;;;;1976098;28;3578357;-73
2023/05/20 05:18:21;;;;;;;;;27.00;23.00;;;;;;;;1962820;28;2848229;-73
2023/05/20 05:19:32;;;;;;;;;30.60;27.40;;;;;;;;1984437;28;3593953;-73
2023/05/20 05:20:44;;;;;;;;;26.80;21.40;;;;;;;;2004523;28;3578849;-73
2023/05/20 05:21:56;;;;;;;;;27.20;23.00;;;;;;;;1974030;28;3604389;-73
2023/05/20 05:23:08;;;;;;;;;21.60;17.00;;;;;;;;1982256;28;3565845;-73
2023/05/20 05:24:19;;;;;;;;;27.80;24.00;;;;;;;;1985698;28;2846165;-73
2023/05/20 05:25:31;;;;;;;;;23.33;18.67;;;;;;;;1980490;28;3587708;-73
2023/05/20 05:26:42;;;;;;;;;25.33;21.33;;;;;;;;1955601;28;3578342;-73
2023/05/20 05:27:55;;;;;;;;;28.57;23.14;;;;;;;;1974877;28;3590829;-73
2023/05/20 05:29:07;;;;;;;;;31.60;23.00;;;;;;;;1978756;28;3603726;-73
2023/05/20 05:30:20;;;;;;;;;36.20;27.40;;;;;;;;2002403;28;3603337;-73
2023/05/20 05:31:31;;;;;;;;;29.50;25.50;;;;;;;;1957061;28;2833557;-73
2023/05/20 05:32:43;;;;;;;;;23.20;21.40;;;;;;;;1982948;28;3578317;-73
2023/05/20 05:33:55;;;;;;;;;29.00;22.60;;;;;;;;1978859;28;3580398;-73
2023/05/20 05:35:06;;;;;;;;;27.80;23.60;;;;;;;;1961740;28;2847185;-73
2023/05/20 05:36:16;;;;;;;;;27.00;24.00;;;;;;;;1979037;28;2846058;-73
2023/05/20 05:37:27;;;;;;;;;32.40;26.00;;;;;;;;1957986;28;2849639;-73
2023/05/20 05:38:39;;;;;;;;;28.20;25.40;;;;;;;;1997968;28;3570012;-73
2023/05/20 05:39:51;;;;;;;;;24.20;18.80;;;;;;;;2004718;28;3577280;-73
2023/05/20 05:41:04;;;;;;;;;30.14;25.57;;;;;;;;1998426;28;3593997;-73
2023/05/20 05:42:16;;;;;;;;;27.67;24.33;;;;;;;;1968973;28;3587684;-73
2023/05/20 05:43:28;;;;;;;;;26.00;21.80;;;;;;;;1981736;28;3588761;-73
2023/05/20 05:44:40;;;;;;;;;20.40;19.20;;;;;;;;1980278;28;3573133;-73
2023/05/20 05:45:52;;;;;;;;;25.80;21.60;;;;;;;;1978488;28;3575189;-73
2023/05/20 05:47:05;;;;;;;;;26.40;21.60;;;;;;;;2003785;28;3577324;-73
2023/05/20 05:48:15;;;;;;;;;20.00;18.00;;;;;;;;1955852;28;2837718;-73
2023/05/20 05:49:27;;;;;;;;;22.00;21.00;;;;;;;;1982633;28;3579379;-73
2023/05/20 05:50:44;;;;;;;;;24.43;22.00;;;;;;;;2000507;28;3573169;-73
2023/05/20 05:51:55;;;;;;;;;27.50;21.50;;;;;;;;1978185;28;2842974;-73
2023/05/20 05:53:06;;;;;;;;;29.40;25.40;;;;;;;;1977562;28;3584626;-73
2023/05/20 05:54:21;;;;;;;;;27.00;24.40;;;;;;;;2004530;28;3584588;-73
2023/05/20 05:55:33;;;;;;;;;29.33;23.67;;;;;;;;1952564;28;3585606;-73
2023/05/20 05:56:43;;;;;;;;;28.40;25.40;;;;;;;;1962914;28;2849305;-73
2023/05/20 05:57:55;;;;;;;;;32.60;28.20;;;;;;;;1982617;28;3596018;-73
2023/05/20 05:59:09;;;;;;;;;33.13;28.75;;;;;;;;1998317;28;3600192;-73
2023/05/20 06:00:20;;;;;;;;;24.00;21.67;;;;;;;;1973287;28;3571069;-73
2023/05/20 06:01:31;;;;;;;;;32.00;28.40;;;;;;;;1960722;28;2846137;-73
2023/05/20 06:02:43;;;;;;;;;26.60;24.00;;;;;;;;1997468;28;3582477;-73
2023/05/20 06:03:55;;;;;;;;;30.60;26.60;;;;;;;;1998193;28;3594979;-73
2023/05/20 06:05:07;;;;;;;;;27.40;24.20;;;;;;;;1976772;28;3578391;-73
2023/05/20 06:06:19;;;;;;;;;27.60;23.40;;;;;;;;1965303;28;3580453;-73
2023/05/20 06:07:30;;;;;;;;;26.40;21.80;;;;;;;;1969660;28;3579387;-73
2023/05/20 06:08:44;;;;;;;;;34.25;25.13;;;;;;;;1976057;28;3614799;-73
2023/05/20 06:09:58;;;;;;;;;35.75;27.25;;;;;;;;2000271;28;3625264;-73
2023/05/20 06:11:10;;;;;;;;;28.80;24.20;;;;;;;;1979070;28;3589791;-73
2023/05/20 06:12:22;;;;;;;;;29.80;25.40;;;;;;;;1980858;28;3583525;-73
2023/05/20 06:13:35;;;;;;;;;32.88;29.00;;;;;;;;1975514;28;3603353;-73
2023/05/20 06:14:46;;;;;;;;;31.00;27.00;;;;;;;;1974542;28;2856992;-73
2023/05/20 06:15:58;;;;;;;;;25.20;23.20;;;;;;;;1963701;28;3586140;-73
2023/05/20 06:17:10;;;;;;;;;33.00;26.60;;;;;;;;2004907;28;3602279;-73
2023/05/20 06:18:22;;;;;;;;;30.20;27.00;;;;;;;;1983063;28;3588726;-73
2023/05/20 06:19:34;;;;;;;;;24.20;21.60;;;;;;;;1980554;28;3578786;-73
2023/05/20 06:20:53;;;;;;;;;21.86;19.00;;;;;;;;1976609;28;3566362;-73
2023/05/20 06:22:04;;;;;;;;;25.67;21.67;;;;;;;;1975106;28;3573137;-73
2023/05/20 06:23:17;;;;;;;;;26.57;21.14;;;;;;;;1973019;28;3567945;-73
2023/05/20 06:24:29;;;;;;;;;26.60;23.60;;;;;;;;1978712;28;3578345;-73
2023/05/20 06:25:42;;;;;;;;;36.13;26.38;;;;;;;;1975650;28;3623135;-73
2023/05/20 06:26:54;;;;;;;;;24.60;21.60;;;;;;;;1979765;28;3585605;-73
2023/05/20 06:28:07;;;;;;;;;22.00;19.00;;;;;;;;1981757;28;3569981;-73
2023/05/20 06:29:18;;;;;;;;;30.60;22.80;;;;;;;;1989594;28;3596037;-73
2023/05/20 06:30:32;;;;;;;;;32.13;24.13;;;;;;;;1975065;28;3616885;-73
2023/05/20 06:31:43;;;;;;;;;28.00;23.60;;;;;;;;1961478;28;2852422;-73
2023/05/20 06:32:54;;;;;;;;;26.33;24.00;;;;;;;;1977455;28;3583518;-73
2023/05/20 06:34:06;;;;;;;;;26.60;21.80;;;;;;;;1979120;28;3585658;-73
2023/05/20 06:35:18;;;;;;;;;33.20;26.20;;;;;;;;1980734;28;3607491;-73
2023/05/20 06:36:30;;;;;;;;;27.60;21.80;;;;;;;;1981277;28;3582497;-73
2023/05/20 06:37:41;;;;;;;;;31.40;24.20;;;;;;;;1961448;28;2849797;-73
2023/05/20 06:38:51;;;;;;;;;24.50;24.00;;;;;;;;1978217;28;2506561;-73
2023/05/20 06:40:04;;;;;;;;;25.00;23.60;;;;;;;;1981115;28;3582496;-73
2023/05/20 06:41:15;;;;;;;;;30.67;26.33;;;;;;;;1987523;28;3592248;-73
2023/05/20 06:42:26;;;;;;;;;26.20;23.20;;;;;;;;1963209;28;2838828;-73
2023/05/20 06:43:39;;;;;;;;;34.00;30.20;;;;;;;;1984110;28;3606473;-73
2023/05/20 06:44:50;;;;;;;;;35.33;24.00;;;;;;;;1978356;28;2866959;-73
2023/05/20 06:46:00;;;;;;;;;25.50;23.00;;;;;;;;1977750;28;2848673;-73
2023/05/20 06:47:16;;;;;;;;;29.00;26.40;;;;;;;;1981706;28;3591856;-73